KBKD/BKD METAR and TAF weather

Enter ICAO airport designator
Station Type Date Time Source
KBKD METAR 2020/07/10 18:55 UTC NOAA

KBKD 101855Z AUTO 16007KT 110V180 7SM SCT050 35/21 A3002 RMK AO2 T03540209


Station Type Date Time Source
KBKD Decoded METAR 2020/07/10 18:55 UTC NOAA

Station name not available
Jul 10, 2020 - 02:55 PM EDT / 2020.07.10 1855 UTC
Wind: from the SSE (160 degrees) at 8 MPH (7 KT) (direction variable):0
Visibility: 7 mile(s):0
Sky conditions: partly cloudy
Temperature: 95.7 F (35.4 C)
Heat index: 101.5 F (38.6 C):1
Dew Point: 69.6 F (20.9 C)
Relative Humidity: 42%
Pressure (altimeter): 30.02 in. Hg (1016 hPa)
ob: KBKD 101855Z AUTO 16007KT 110V180 7SM SCT050 35/21 A3002 RMK AO2 T03540209
cycle: 19

Station Type Date Time Source
KBKD TAF UTC NOAA

Error!

Example: see airport list